createdAt,value
2019-01-25T00:01:14.783Z,-3.70
2019-01-25T00:03:46.538Z,-3.70
2019-01-25T00:06:16.557Z,-3.70
2019-01-25T00:08:46.386Z,-3.70
2019-01-25T00:11:16.180Z,-3.70
2019-01-25T00:13:45.984Z,-3.70
2019-01-25T00:16:15.820Z,-3.60
2019-01-25T00:18:45.637Z,-3.60
2019-01-25T00:21:15.503Z,-3.60
2019-01-25T00:23:45.435Z,-3.60
2019-01-25T00:26:15.221Z,-3.60
2019-01-25T00:28:44.985Z,-3.60
2019-01-25T00:31:14.772Z,-3.50
2019-01-25T00:33:46.991Z,-3.50
2019-01-25T00:36:16.843Z,-3.60
2019-01-25T00:38:46.765Z,-3.60
2019-01-25T00:41:16.526Z,-3.60
2019-01-25T00:43:47.305Z,-3.60
2019-01-25T00:46:17.077Z,-3.60
2019-01-25T00:48:48.979Z,-3.60
2019-01-25T00:51:18.825Z,-3.70
2019-01-25T00:53:48.711Z,-3.70
2019-01-25T00:56:18.494Z,-3.70
2019-01-25T00:58:48.428Z,-3.70
2019-01-25T01:01:18.230Z,-3.70
2019-01-25T01:03:48.011Z,-3.70
2019-01-25T01:06:17.811Z,-3.70
2019-01-25T01:08:47.755Z,-3.60
2019-01-25T01:11:17.540Z,-3.60
2019-01-25T01:13:48.631Z,-3.70
2019-01-25T01:16:18.577Z,-3.70
2019-01-25T01:18:48.708Z,-3.70
2019-01-25T01:21:18.574Z,-3.70
2019-01-25T01:23:48.347Z,-3.70
2019-01-25T01:26:18.252Z,-3.70
2019-01-25T01:28:47.996Z,-3.60
2019-01-25T01:31:17.794Z,-3.70
2019-01-25T01:33:47.640Z,-3.70
2019-01-25T01:36:17.445Z,-3.70
2019-01-25T01:38:50.000Z,-3.70
2019-01-25T01:41:19.876Z,-3.70
2019-01-25T01:43:49.909Z,-3.70
2019-01-25T01:46:19.849Z,-3.70
2019-01-25T01:48:49.693Z,-3.70
2019-01-25T01:51:19.554Z,-3.60
2019-01-25T01:53:49.321Z,-3.60
2019-01-25T01:56:19.152Z,-3.70
2019-01-25T01:58:48.956Z,-3.80
2019-01-25T02:01:18.796Z,-3.80
2019-01-25T02:03:48.561Z,-3.80
2019-01-25T02:06:18.395Z,-3.80
2019-01-25T02:08:48.324Z,-3.80
2019-01-25T02:11:18.128Z,-3.80
2019-01-25T02:13:48.035Z,-3.90
2019-01-25T02:16:17.869Z,-3.80
2019-01-25T02:18:47.660Z,-3.80
2019-01-25T02:21:17.684Z,-3.70
2019-01-25T02:23:47.561Z,-3.80
2019-01-25T02:26:17.310Z,-3.70
2019-01-25T02:28:47.229Z,-3.80
2019-01-25T02:31:17.142Z,-3.70
2019-01-25T02:33:47.165Z,-3.70
2019-01-25T02:36:16.976Z,-3.70
2019-01-25T02:38:46.855Z,-3.70
2019-01-25T02:41:16.632Z,-3.70
2019-01-25T02:43:46.434Z,-3.70
2019-01-25T02:46:16.241Z,-3.70
2019-01-25T02:48:46.036Z,-3.70
2019-01-25T02:51:15.865Z,-3.70
2019-01-25T02:53:45.927Z,-3.60
2019-01-25T02:56:15.766Z,-3.70
2019-01-25T02:58:47.447Z,-3.70
2019-01-25T03:01:17.253Z,-3.70
2019-01-25T03:03:47.018Z,-3.60
2019-01-25T03:06:16.820Z,-3.60
2019-01-25T03:08:46.781Z,-3.70
2019-01-25T03:11:16.593Z,-3.70
2019-01-25T03:13:49.398Z,-3.70
2019-01-25T03:16:19.259Z,-3.60
2019-01-25T03:18:49.114Z,-3.60
2019-01-25T03:21:19.021Z,-3.70
2019-01-25T03:23:48.865Z,-3.70
2019-01-25T03:26:18.745Z,-3.70
2019-01-25T03:28:48.555Z,-3.70
2019-01-25T03:31:18.338Z,-3.70
2019-01-25T03:33:48.181Z,-3.80
2019-01-25T03:36:17.976Z,-3.80
2019-01-25T03:38:47.862Z,-3.80
2019-01-25T03:41:17.705Z,-3.80
2019-01-25T03:43:47.570Z,-3.80
2019-01-25T03:46:17.511Z,-3.90
2019-01-25T03:48:48.893Z,-3.90
2019-01-25T03:51:18.673Z,-3.80
2019-01-25T03:53:48.516Z,-3.80
2019-01-25T03:56:18.407Z,-3.80
2019-01-25T03:58:48.113Z,-3.80
2019-01-25T04:01:17.984Z,-3.80
2019-01-25T04:03:47.733Z,-3.80
2019-01-25T04:06:17.643Z,-3.80
2019-01-25T04:08:47.432Z,-3.80
2019-01-25T04:11:17.213Z,-3.80
2019-01-25T04:13:46.989Z,-3.80
2019-01-25T04:16:16.754Z,-3.70
2019-01-25T04:18:49.094Z,-3.70
2019-01-25T04:21:18.949Z,-3.70
2019-01-25T04:23:48.704Z,-3.80
2019-01-25T04:26:18.512Z,-3.80
2019-01-25T04:28:48.273Z,-3.80
2019-01-25T04:31:18.066Z,-3.80
2019-01-25T04:33:50.609Z,-3.80
2019-01-25T04:36:20.457Z,-3.80
2019-01-25T04:38:50.229Z,-3.80
2019-01-25T04:41:19.987Z,-3.80
2019-01-25T04:43:49.844Z,-3.80
2019-01-25T04:46:19.590Z,-3.90
2019-01-25T04:48:49.362Z,-3.90
2019-01-25T04:51:19.160Z,-3.90
2019-01-25T04:53:48.956Z,-3.90
2019-01-25T04:56:18.796Z,-3.90
2019-01-25T04:58:48.698Z,-3.90
2019-01-25T05:01:18.458Z,-3.90
2019-01-25T05:03:48.326Z,-3.90
2019-01-25T05:06:18.180Z,-3.90
2019-01-25T05:08:48.064Z,-3.80
2019-01-25T05:11:19.940Z,-3.80
2019-01-25T05:13:50.205Z,-3.90
2019-01-25T05:16:19.982Z,-3.90
2019-01-25T05:18:49.874Z,-3.90
2019-01-25T05:21:24.663Z,-3.90
2019-01-25T05:23:54.454Z,-3.80
2019-01-25T05:26:24.222Z,-3.80
2019-01-25T05:28:54.123Z,-3.80
2019-01-25T05:31:27.212Z,-3.90
2019-01-25T05:33:59.274Z,-3.80
2019-01-25T05:36:29.136Z,-3.80
2019-01-25T05:38:59.074Z,-3.80
2019-01-25T05:41:28.979Z,-3.80
2019-01-25T05:43:58.867Z,-3.80
2019-01-25T05:46:28.704Z,-3.70
2019-01-25T05:48:58.493Z,-3.70
2019-01-25T05:51:33.581Z,-3.70
2019-01-25T05:53:59.773Z,-3.70
2019-01-25T05:56:29.549Z,-3.70
2019-01-25T05:58:59.329Z,-3.80
2019-01-25T06:01:29.093Z,-3.80
2019-01-25T06:03:58.869Z,-3.80
2019-01-25T06:06:28.707Z,-3.80
2019-01-25T06:08:58.488Z,-3.80
2019-01-25T06:11:35.228Z,-3.80
2019-01-25T06:13:59.979Z,-3.70
2019-01-25T06:16:29.799Z,-3.70
2019-01-25T06:18:59.691Z,-3.80
2019-01-25T06:21:29.490Z,-3.80
2019-01-25T06:23:59.372Z,-3.80
2019-01-25T06:26:29.222Z,-3.80
2019-01-25T06:28:59.021Z,-3.80
2019-01-25T06:31:28.810Z,-3.80
2019-01-25T06:33:58.714Z,-3.80
2019-01-25T06:36:28.464Z,-3.80
2019-01-25T06:38:58.257Z,-3.80
2019-01-25T06:41:28.076Z,-3.80
2019-01-25T06:43:57.880Z,-3.70
2019-01-25T06:46:27.741Z,-3.70
2019-01-25T06:48:57.640Z,-3.70
2019-01-25T06:51:27.445Z,-3.80
2019-01-25T06:53:57.313Z,-3.80
2019-01-25T06:56:27.168Z,-3.80
2019-01-25T06:59:21.992Z,-3.80
2019-01-25T07:02:16.425Z,-3.80
2019-01-25T07:04:46.220Z,-3.80
2019-01-25T07:07:26.480Z,-3.80
2019-01-25T07:09:56.365Z,-3.90
2019-01-25T07:12:26.500Z,-3.80
2019-01-25T07:14:59.173Z,-3.90
2019-01-25T07:17:29.024Z,-3.80
2019-01-25T07:19:58.934Z,-3.90
2019-01-25T07:22:28.954Z,-3.90
2019-01-25T07:24:58.765Z,-3.80
2019-01-25T07:27:28.560Z,-3.80
2019-01-25T07:29:58.347Z,-3.80
2019-01-25T07:32:28.133Z,-3.80
2019-01-25T07:34:57.961Z,-3.80
2019-01-25T07:37:27.814Z,-3.80
2019-01-25T07:39:57.762Z,-3.80
2019-01-25T07:42:27.578Z,-3.90
2019-01-25T07:44:57.469Z,-3.80
2019-01-25T07:47:27.291Z,-3.90
2019-01-25T07:49:57.077Z,-3.90
2019-01-25T07:52:27.037Z,-3.90
2019-01-25T07:54:56.938Z,-3.90
2019-01-25T07:57:26.977Z,-3.90
2019-01-25T07:59:56.704Z,-3.90
2019-01-25T08:02:26.569Z,-3.80
2019-01-25T08:04:56.384Z,-3.80
2019-01-25T08:07:26.331Z,-3.80
2019-01-25T08:09:56.580Z,-3.60
2019-01-25T08:12:26.422Z,-3.60
2019-01-25T08:14:56.253Z,-3.50
2019-01-25T08:17:26.474Z,-3.60
2019-01-25T08:19:56.360Z,-3.60
2019-01-25T08:22:26.318Z,-3.70
2019-01-25T08:24:56.169Z,-3.80
2019-01-25T08:27:26.438Z,-3.80
2019-01-25T08:29:56.242Z,-3.80
2019-01-25T08:32:26.124Z,-3.80
2019-01-25T08:34:55.993Z,-3.80
2019-01-25T08:37:27.015Z,-3.80
2019-01-25T08:39:56.934Z,-3.80
2019-01-25T08:42:26.788Z,-3.70
2019-01-25T08:44:56.585Z,-3.70
2019-01-25T08:47:26.377Z,-3.70
2019-01-25T08:49:58.003Z,-3.70
2019-01-25T08:52:28.062Z,-3.70
2019-01-25T08:54:58.346Z,-3.70
2019-01-25T08:57:28.247Z,-3.70
2019-01-25T08:59:58.269Z,-3.60
2019-01-25T09:02:28.581Z,-3.60
2019-01-25T09:04:58.576Z,-3.60
2019-01-25T09:07:28.381Z,-3.60
2019-01-25T09:09:58.208Z,-3.60
2019-01-25T09:12:28.073Z,-3.50
2019-01-25T09:14:57.914Z,-3.50
2019-01-25T09:17:28.287Z,-3.40
2019-01-25T09:19:58.055Z,-3.40
2019-01-25T09:22:28.226Z,-3.40
2019-01-25T09:24:58.141Z,-3.40
2019-01-25T09:27:27.918Z,-3.30
2019-01-25T09:29:57.986Z,-3.30
2019-01-25T09:32:27.880Z,-3.30
2019-01-25T09:34:57.728Z,-3.30
2019-01-25T09:37:27.525Z,-3.20
2019-01-25T09:39:57.384Z,-3.10
2019-01-25T09:42:31.250Z,-3.10
2019-01-25T09:44:58.865Z,-3.00
2019-01-25T09:47:29.209Z,-3.00
2019-01-25T09:49:59.061Z,-3.10
2019-01-25T09:52:28.905Z,-3.10
2019-01-25T09:54:58.799Z,-3.20
2019-01-25T09:57:28.692Z,-3.20
2019-01-25T09:59:58.668Z,-3.10
2019-01-25T10:02:28.576Z,-3.10
2019-01-25T10:04:58.372Z,-3.00
2019-01-25T10:07:28.144Z,-3.00
2019-01-25T10:09:57.968Z,-3.00
2019-01-25T10:12:27.785Z,-3.10
2019-01-25T10:14:57.592Z,-3.00
2019-01-25T10:17:27.524Z,-3.10
2019-01-25T10:20:01.656Z,-3.10
2019-01-25T10:22:31.541Z,-3.00
2019-01-25T10:25:01.362Z,-3.00
2019-01-25T10:27:31.240Z,-3.00
2019-01-25T10:30:01.027Z,-3.10
2019-01-25T10:32:31.132Z,-3.00
2019-01-25T10:35:00.983Z,-3.10
2019-01-25T10:37:30.709Z,-3.10
2019-01-25T10:40:00.649Z,-3.10
2019-01-25T10:42:30.562Z,-3.10
2019-01-25T10:45:04.431Z,-3.10
2019-01-25T10:47:31.865Z,-3.10
2019-01-25T10:50:01.678Z,-3.10
2019-01-25T10:52:31.514Z,-3.10
2019-01-25T10:55:01.362Z,-3.10
2019-01-25T10:57:31.155Z,-3.10
2019-01-25T11:00:01.358Z,-3.10
2019-01-25T11:02:31.215Z,-3.10
2019-01-25T11:05:01.113Z,-3.10
2019-01-25T11:07:30.900Z,-3.10
2019-01-25T11:10:00.700Z,-3.10
2019-01-25T11:12:30.502Z,-3.20
2019-01-25T11:15:01.326Z,-3.20
2019-01-25T11:17:36.412Z,-3.10
2019-01-25T11:20:04.116Z,-3.00
2019-01-25T11:22:33.949Z,-2.90
2019-01-25T11:25:04.341Z,-2.90
2019-01-25T11:27:34.190Z,-2.80
2019-01-25T11:30:04.557Z,-2.70
2019-01-25T11:32:36.059Z,-2.70
2019-01-25T11:35:06.224Z,-2.70
2019-01-25T11:37:36.134Z,-2.70
2019-01-25T11:40:10.713Z,-2.80
2019-01-25T11:42:40.686Z,-2.80
2019-01-25T11:45:11.225Z,-2.80
2019-01-25T11:47:41.045Z,-2.90
2019-01-25T11:50:12.705Z,-2.90
2019-01-25T11:52:42.513Z,-2.90
2019-01-25T11:55:12.429Z,-2.80
2019-01-25T11:57:42.483Z,-2.80
2019-01-25T12:00:20.864Z,-2.80
2019-01-25T12:02:50.852Z,-2.70
2019-01-25T12:05:22.131Z,-2.70
2019-01-25T12:07:52.267Z,-2.60
2019-01-25T12:10:24.280Z,-2.50
2019-01-25T12:12:54.208Z,-2.50
2019-01-25T12:15:24.212Z,-2.60
2019-01-25T12:17:54.142Z,-2.70
2019-01-25T12:20:25.698Z,-2.70
2019-01-25T12:22:55.518Z,-2.80
2019-01-25T12:25:25.504Z,-2.80
2019-01-25T12:27:55.276Z,-2.90
2019-01-25T12:30:27.588Z,-2.90
2019-01-25T12:32:57.796Z,-2.90
2019-01-25T12:35:50.948Z,-2.70
2019-01-25T12:38:20.863Z,-2.60
2019-01-25T12:40:54.319Z,-2.30
2019-01-25T12:43:26.879Z,-1.90
2019-01-25T12:45:57.469Z,-1.50
2019-01-25T12:48:27.300Z,-1.30
2019-01-25T12:51:04.685Z,-1.20
2019-01-25T12:53:35.016Z,-1.40
2019-01-25T12:56:06.116Z,-1.40
2019-01-25T12:58:36.022Z,-1.50
2019-01-25T13:01:06.311Z,-1.40
2019-01-25T13:03:36.327Z,-1.60
2019-01-25T13:06:06.962Z,-1.80
2019-01-25T13:08:36.789Z,-1.90
2019-01-25T13:11:06.831Z,-1.90
2019-01-25T13:13:36.714Z,-2.00
2019-01-25T13:16:06.812Z,-2.10
2019-01-25T13:18:36.739Z,-2.10
2019-01-25T13:21:06.819Z,-2.10
2019-01-25T13:23:36.573Z,-2.10
2019-01-25T13:26:06.481Z,-2.10
2019-01-25T13:28:36.319Z,-2.10
2019-01-25T13:31:06.280Z,-2.20
2019-01-25T13:33:36.595Z,-2.20
2019-01-25T13:36:13.007Z,-2.20
2019-01-25T13:38:42.880Z,-2.10
2019-01-25T13:41:12.767Z,-2.10
2019-01-25T13:43:43.030Z,-2.00
2019-01-25T13:46:13.783Z,-2.00
2019-01-25T13:48:44.069Z,-2.10
2019-01-25T13:51:14.838Z,-2.10
2019-01-25T13:53:44.777Z,-2.20
2019-01-25T13:56:14.733Z,-2.20
2019-01-25T13:58:44.523Z,-2.20
2019-01-25T14:01:14.521Z,-2.30
2019-01-25T14:03:44.412Z,-2.30
2019-01-25T14:06:14.222Z,-2.30
2019-01-25T14:08:44.018Z,-2.30
2019-01-25T14:11:14.188Z,-2.30
2019-01-25T14:13:46.899Z,-2.20
2019-01-25T14:16:15.632Z,-2.30
2019-01-25T14:18:45.469Z,-2.20
2019-01-25T14:21:15.329Z,-2.20
2019-01-25T14:23:46.704Z,-2.20
2019-01-25T14:26:16.583Z,-2.20
2019-01-25T14:28:46.714Z,-2.10
2019-01-25T14:31:16.608Z,-2.20
2019-01-25T14:34:03.966Z,-2.20
2019-01-25T14:36:29.746Z,-2.20
2019-01-25T14:38:59.597Z,-2.20
2019-01-25T14:42:08.111Z,-2.20
2019-01-25T14:44:58.215Z,-2.20
2019-01-25T14:47:38.760Z,-2.30
2019-01-25T14:50:12.490Z,-2.30
2019-01-25T14:52:45.655Z,-2.30
2019-01-25T14:55:28.882Z,-2.30
2019-01-25T14:58:40.884Z,-2.30
2019-01-25T15:01:38.345Z,-2.30
2019-01-25T15:04:16.022Z,-2.30
2019-01-25T15:07:02.658Z,-2.40
2019-01-25T15:09:33.887Z,-2.30
2019-01-25T15:12:09.989Z,-2.40
2019-01-25T15:14:39.828Z,-2.40
2019-01-25T15:17:10.088Z,-2.40
2019-01-25T15:19:40.017Z,-2.40
2019-01-25T15:22:10.796Z,-2.40
2019-01-25T15:24:40.717Z,-2.50
2019-01-25T15:27:11.654Z,-2.40
2019-01-25T15:29:42.151Z,-2.40
2019-01-25T15:32:12.428Z,-2.50
2019-01-25T15:34:42.308Z,-2.50
2019-01-25T15:37:12.137Z,-2.50
2019-01-25T15:39:42.214Z,-2.50
2019-01-25T15:42:12.045Z,-2.50
2019-01-25T15:44:42.208Z,-2.50
2019-01-25T15:47:12.157Z,-2.60
2019-01-25T15:49:42.053Z,-2.60
2019-01-25T15:52:11.923Z,-2.50
2019-01-25T15:54:41.788Z,-2.50
2019-01-25T15:57:11.694Z,-2.60
2019-01-25T15:59:41.562Z,-2.60
2019-01-25T16:02:11.629Z,-2.60
2019-01-25T16:04:41.522Z,-2.60
2019-01-25T16:07:11.402Z,-2.50
2019-01-25T16:09:41.619Z,-2.60
2019-01-25T16:12:11.591Z,-2.60
2019-01-25T16:14:41.659Z,-2.60
2019-01-25T16:17:11.609Z,-2.60
2019-01-25T16:19:41.468Z,-2.70
2019-01-25T16:22:11.719Z,-2.70
2019-01-25T16:24:41.730Z,-2.70
2019-01-25T16:27:11.600Z,-2.70
2019-01-25T16:29:41.561Z,-2.70
2019-01-25T16:32:11.486Z,-2.70
2019-01-25T16:34:41.451Z,-2.70
2019-01-25T16:37:11.251Z,-2.70
2019-01-25T16:39:41.043Z,-2.70
2019-01-25T16:42:10.913Z,-2.70
2019-01-25T16:44:40.733Z,-2.70
2019-01-25T16:47:11.418Z,-2.70
2019-01-25T16:49:41.322Z,-2.70
2019-01-25T16:52:11.211Z,-2.60
2019-01-25T16:54:41.178Z,-2.60
2019-01-25T16:57:12.476Z,-2.50
2019-01-25T16:59:43.433Z,-2.50
2019-01-25T17:02:13.410Z,-2.50
2019-01-25T17:04:43.448Z,-2.50
2019-01-25T17:07:16.560Z,-2.50
2019-01-25T17:09:46.411Z,-2.50
2019-01-25T17:12:16.664Z,-2.50
2019-01-25T17:14:46.381Z,-2.50
2019-01-25T17:17:16.559Z,-2.50
2019-01-25T17:19:46.394Z,-2.50
2019-01-25T17:22:16.200Z,-2.40
2019-01-25T17:24:46.115Z,-2.40
2019-01-25T17:27:16.063Z,-2.40
2019-01-25T17:29:46.033Z,-2.40
2019-01-25T17:32:15.945Z,-2.40
2019-01-25T17:34:45.969Z,-2.40
2019-01-25T17:37:15.777Z,-2.30
2019-01-25T17:39:45.620Z,-2.30
2019-01-25T17:42:15.622Z,-2.20
2019-01-25T17:44:45.853Z,-2.20
2019-01-25T17:47:15.863Z,-2.20
2019-01-25T17:49:45.734Z,-2.20
2019-01-25T17:52:15.588Z,-2.30
2019-01-25T17:54:45.715Z,-2.20
2019-01-25T17:57:15.676Z,-2.20
2019-01-25T17:59:46.156Z,-2.10
2019-01-25T18:02:15.970Z,-2.10
2019-01-25T18:04:45.805Z,-2.10
2019-01-25T18:07:15.613Z,-2.10
2019-01-25T18:09:45.446Z,-2.10
2019-01-25T18:12:15.258Z,-2.20
2019-01-25T18:14:49.442Z,-2.20
2019-01-25T18:17:16.965Z,-2.20
2019-01-25T18:19:46.833Z,-2.20
2019-01-25T18:22:16.800Z,-2.20
2019-01-25T18:24:46.617Z,-2.20
2019-01-25T18:27:16.560Z,-2.20
2019-01-25T18:29:49.416Z,-2.20
2019-01-25T18:32:19.280Z,-2.20
2019-01-25T18:34:49.168Z,-2.20
2019-01-25T18:37:20.331Z,-2.20
2019-01-25T18:39:51.719Z,-2.30
2019-01-25T18:42:21.650Z,-2.30
2019-01-25T18:44:56.657Z,-2.30
2019-01-25T18:47:23.208Z,-2.30
2019-01-25T18:49:53.029Z,-2.30
2019-01-25T18:52:22.810Z,-2.30
2019-01-25T18:54:52.614Z,-2.30
2019-01-25T18:57:23.202Z,-2.20
2019-01-25T18:59:53.773Z,-2.30
2019-01-25T19:02:24.570Z,-2.30
2019-01-25T19:04:54.752Z,-2.30
2019-01-25T19:07:25.171Z,-2.40
2019-01-25T19:09:55.545Z,-2.40
2019-01-25T19:12:27.237Z,-2.40
2019-01-25T19:15:04.119Z,-2.50
2019-01-25T19:17:29.587Z,-2.50
2019-01-25T19:20:00.184Z,-2.60
2019-01-25T19:22:30.286Z,-2.60
2019-01-25T19:25:00.975Z,-2.70
2019-01-25T19:27:30.891Z,-2.70
2019-01-25T19:30:04.054Z,-2.70
2019-01-25T19:32:34.268Z,-2.70
2019-01-25T19:35:05.980Z,-2.70
2019-01-25T19:37:36.046Z,-2.70
2019-01-25T19:40:08.021Z,-2.70
2019-01-25T19:42:39.252Z,-2.80
2019-01-25T19:45:11.995Z,-2.90
2019-01-25T19:47:42.036Z,-2.90
2019-01-25T19:50:16.071Z,-2.80
2019-01-25T19:52:46.374Z,-2.80
2019-01-25T19:55:19.199Z,-2.80
2019-01-25T19:57:49.826Z,-2.80
2019-01-25T20:00:25.994Z,-2.90
2019-01-25T20:02:56.376Z,-2.90
2019-01-25T20:05:27.656Z,-2.90
2019-01-25T20:07:57.557Z,-2.90
2019-01-25T20:10:28.077Z,-2.90
2019-01-25T20:12:58.536Z,-3.00
2019-01-25T20:15:28.754Z,-3.00
2019-01-25T20:17:59.429Z,-3.00
2019-01-25T20:20:34.731Z,-3.00
2019-01-25T20:23:08.308Z,-3.00
2019-01-25T20:25:41.450Z,-3.10
2019-01-25T20:28:13.262Z,-3.10
2019-01-25T20:30:49.586Z,-3.10
2019-01-25T20:33:16.727Z,-3.10
2019-01-25T20:35:47.225Z,-3.10
2019-01-25T20:38:17.669Z,-3.10
2019-01-25T20:40:48.596Z,-3.10
2019-01-25T20:43:18.901Z,-3.10
2019-01-25T20:45:49.297Z,-3.10
2019-01-25T20:48:20.612Z,-3.10
2019-01-25T20:50:53.349Z,-3.10
2019-01-25T20:53:24.069Z,-3.10
2019-01-25T20:55:54.722Z,-3.10
2019-01-25T20:58:25.279Z,-3.10
2019-01-25T21:00:55.406Z,-3.10
2019-01-25T21:03:29.730Z,-3.10
2019-01-25T21:06:00.113Z,-3.10
2019-01-25T21:08:30.689Z,-3.10
2019-01-25T21:11:01.835Z,-3.10
2019-01-25T21:13:32.720Z,-3.00
2019-01-25T21:16:03.261Z,-3.00
2019-01-25T21:18:33.661Z,-3.00
2019-01-25T21:21:04.026Z,-3.00
2019-01-25T21:23:34.188Z,-2.90
2019-01-25T21:26:04.539Z,-2.90
2019-01-25T21:28:34.950Z,-3.00
2019-01-25T21:31:06.267Z,-3.00
2019-01-25T21:33:36.100Z,-3.00
2019-01-25T21:36:06.033Z,-3.00
2019-01-25T21:38:36.032Z,-2.90
2019-01-25T21:41:06.452Z,-2.90
2019-01-25T21:43:36.358Z,-2.90
2019-01-25T21:46:06.305Z,-2.90
2019-01-25T21:48:36.209Z,-2.90
2019-01-25T21:51:06.915Z,-2.90
2019-01-25T21:53:36.742Z,-2.90
2019-01-25T21:56:06.639Z,-2.90
2019-01-25T21:58:43.780Z,-3.00
2019-01-25T22:01:14.534Z,-3.00
2019-01-25T22:03:49.968Z,-3.00
2019-01-25T22:06:23.905Z,-3.00
2019-01-25T22:08:54.789Z,-3.10
2019-01-25T22:11:25.310Z,-3.00
2019-01-25T22:13:58.030Z,-3.00
2019-01-25T22:16:28.728Z,-3.00
2019-01-25T22:18:59.061Z,-2.90
2019-01-25T22:21:29.801Z,-3.00
2019-01-25T22:24:00.312Z,-3.00
2019-01-25T22:26:31.066Z,-3.00
2019-01-25T22:29:01.400Z,-3.00
2019-01-25T22:31:31.916Z,-3.00
2019-01-25T22:34:02.353Z,-3.10
2019-01-25T22:36:32.964Z,-3.10
2019-01-25T22:39:04.307Z,-3.20
2019-01-25T22:41:34.665Z,-3.20
2019-01-25T22:44:05.097Z,-3.20
2019-01-25T22:46:38.494Z,-3.20
2019-01-25T22:49:08.823Z,-3.20
2019-01-25T22:51:39.954Z,-3.20
2019-01-25T22:54:10.462Z,-3.30
2019-01-25T22:56:41.064Z,-3.20
2019-01-25T22:59:11.110Z,-3.30
2019-01-25T23:01:42.105Z,-3.30
2019-01-25T23:04:47.516Z,-3.20
2019-01-25T23:07:27.416Z,-3.20
2019-01-25T23:10:13.532Z,-3.20
2019-01-25T23:12:43.889Z,-3.20
2019-01-25T23:15:20.148Z,-3.20
2019-01-25T23:17:53.463Z,-3.20
2019-01-25T23:20:27.285Z,-3.20
2019-01-25T23:22:57.460Z,-3.20
2019-01-25T23:25:32.181Z,-3.20
2019-01-25T23:28:02.592Z,-3.20
2019-01-25T23:30:32.428Z,-3.10
2019-01-25T23:33:02.277Z,-3.00
2019-01-25T23:35:32.201Z,-3.00
2019-01-25T23:38:02.014Z,-3.00
2019-01-25T23:40:31.830Z,-2.90
2019-01-25T23:43:01.676Z,-2.90
2019-01-25T23:45:31.705Z,-2.90
2019-01-25T23:48:01.498Z,-2.90
2019-01-25T23:50:31.268Z,-2.80
2019-01-25T23:53:01.185Z,-2.80
2019-01-25T23:55:30.997Z,-2.70
2019-01-25T23:58:00.829Z,-2.80
